Airfield :
LOGIN :

Register | Disclaimer

   EN    FR    IT 

 










Legend :    VFR   Marginal VFR   IFR   Intensive IFR   Very Intensive IFR
Visi :
Ceiling :
>= 8 km
>= 3000ft
5 to 8 km
1000 to 3000 ft
1500m to 5 km
500 to 1000 ft
800 to 1500m
200 to 500 ft
< 800m
< 200 ft
Symbols :   Thunderstorms  Fog  Heavy snow  Heavy precipitations  Wind > 20 kt
SIGMETs :     Misc.  Thunderstorms  Icing  Turbulence  Mountain Waves  Volcanic Ashes






- Airport Elevation : 466 ft


LHPA - Pápa

CURRENT METAR :
  • 261715Z 31002KT CAVOK 02/M04 Q1014 TEMPO -SN RMK BLU

EXPIRED METARs :
  • 261645Z 00000KT CAVOK 01/M04 Q1014 TEMPO -SN RMK BLU
  • 261615Z 01002KT CAVOK 02/M04 Q1013 NOSIG RMK BLU
  • 261545Z 33006KT CAVOK 02/M04 Q1013 NOSIG RMK BLU
  • 261515Z 34006KT 300V010 CAVOK 03/M04 Q1013 NOSIG RMK BLU
  • 261445Z 01006KT CAVOK 03/M04 Q1013 NOSIG RMK BLU

TAF TAF LHPA
Valid from the 26 at 12:00 until the 27 at 12:00 UTC


261115Z 2612/2712 33010KT CAVOK
TEMPO 2612/2615 33012G24KT 9999 SCT030 SCT200
BECMG 2615/2617 9999 BKN030 BKN083
BECMG 2616/2619 25008KT
TEMPO 2617/2703 3000 SN SHSN SNRA BKN020 OVC060
BECMG 2621/2623 32010KT
BECMG 2703/2706 9999 SCT020
BECMG 2706/2709 9999 BKN030
PROB40
TEMPO 2709/2712 33012G22KT



MET'MAP, your aeronautical weather chart ! - Copyright ORBIFLY December 2007 - Disclaimer

ORBIFLY MET'MAP TEAM :

Programming & Development : Alexandra Zaïnal
Concept & original design : Baudouin d'Aumeries
Assistance for programming : Marc-Olivier Méhu
Technical & hardware support : Manuel Goepfert

Contact : metmap@orbifly.com




SOURCES & CREDITS :

   NOAA